Chester Springs, PA (19425)

5:59 AM EDT on April 21, 2015 (GMT -0400)
Fairfields Chester Springs PA | | Change Station
CLOSE
Current Station
Personal Weather Station
Location: Chester Springs, PA
Elevation: 449 ft
Nearby Weather Stations

Elev 449 ft 40.08 °N, 75.64 °W | Updated 2 minutes ago

Overcast
Overcast
56.8 °F
Feels Like 56.8 °F
N
0.0
Wind Variable Wind from WNW
Gusts 0.0 mph

Today
High -- | Low -- °F
--% Chance of Precip.
Yesterday
High -- | Low -- °F
Precip. -- in
6:16 AM 7:47 PM
Waxing Crescent, 9% visible
Pressure 29.63 in
Visibility 3.0 miles
Clouds Scattered Clouds 500 ft
Mostly Cloudy 1300 ft
Overcast 4800 ft
Dew Point 57 °F
Humidity 99%
Rainfall 0.50 in
Snow Depth Not available.
UV 0.0 out of 12
Pollen .40 out of 12
Air Quality Not available.
Flu Activity Sporadic
METAR KPTW 210954Z AUTO 31009G15KT 260V330 3SM +RA BR SCT005 BKN013 OVC048 13/13 A2964 RMK AO2 RAB07E23B37 PRESRR SLP034 P0005 T01330133

More Conditions Fewer Conditions

Pressure 29.63 in
Visibility 3.0 miles
Clouds Scattered Clouds 500 ft
Mostly Cloudy 1300 ft
Overcast 4800 ft
Dew Point 57 °F
Humidity 99%
Rainfall 0.50 in
Snow Depth Not available.
UV 0.0 out of 12
Pollen .40 out of 12
Air Quality Not available.
Flu Activity Sporadic
METAR KPTW 210954Z AUTO 31009G15KT 260V330 3SM +RA BR SCT005 BKN013 OVC048 13/13 A2964 RMK AO2 RAB07E23B37 PRESRR SLP034 P0005 T01330133

More Conditions Fewer Conditions

Nowcast | as of 5:17 am EDT on April 21, 2015

As we start the morning commute some widely scattered leftover showers will be passing through the area. The downward trend continues and any additional rainfall amounts between 530 am and 730 am should be less than one tenth of an inch.

×

10-Day Weather Forecast

Almanac

Astronomy

Apr. 21, 2015 Rise Set
Actual Time
Civil Twilight
Nautical Twilight
Astronomical Twilight
Moon
Length of Visible Light
Length of Day
Tomorrow will be .
, % of the Moon is Illuminated

Today's Extremes

State Highs State Lows

Community

WunderPhotos

Upload Photos

1,815,331 photos uploaded!

WunderBlogs® & News

Nearby

Air Quality

  Air Quality AQ Index Pollutant
Not available.

Snow Depth

Station Depth Elevation

Earthquake Activity

City Distance Mag. Time & Date
Minimum magnitude displayed is 2.5.

Coastal Water Temperatures

Place Temperature

Stations

Nearby Weather Stations

Station Location Temp. Windchill Dew Point Humidity Wind Precip. Elev Updated Type